Agios Georgios I — SX9857 — position and weather

sailwx.info

Track history (hours):
 
Tides and Currents Weather Stations Pressure Air Temp Water Temp Dewpoint Dewpoint Depression Visibility Wind Speed Wind Dir Waves Ship Positions

Agios Georgios I

Last reported at 2017-Jun-25 09:00 UTC. Time now 2017-Jun-25 09:01 UTC.
Position N 37°21' E 025°03'.

Length 59 m; draft 5 m.

Type: Ship (hazmat cat B). MMSI: 239912000.

Date/timePositionNaut miles runAvg speedWind from/ knotsBaromVisibWave heightAir tempDewpointWater temp
2017-Jun-25 09:00N 37°21' E 025°03'4 8.4
2017-Jun-25 08:30N 37°24' E 024°60'3 6.1
2017-Jun-25 08:00N 37°26' E 024°57'0 0.0
2017-Jun-25 07:29N 37°26' E 024°57'0 0.0
2017-Jun-25 06:57N 37°26' E 024°57'0 0.6
2017-Jun-25 06:30N 37°26' E 024°56'0 0.0
2017-Jun-25 06:00N 37°26' E 024°56'0 0.0
2017-Jun-25 05:30N 37°26' E 024°56'0 0.0
2017-Jun-25 05:00N 37°26' E 024°56'0 0.0
2017-Jun-25 04:29N 37°26' E 024°56'0 0.0
2017-Jun-25 04:00N 37°26' E 024°56'0 0.0
2017-Jun-25 03:30N 37°26' E 024°56'0 0.0
2017-Jun-25 03:00N 37°26' E 024°56'0 0.0
2017-Jun-25 02:30N 37°26' E 024°56'0 0.0
2017-Jun-25 02:00N 37°26' E 024°56'0 0.0
2017-Jun-25 01:30N 37°26' E 024°56'0 0.0
2017-Jun-25 01:00N 37°26' E 024°56'0 0.0
2017-Jun-25 00:30N 37°26' E 024°56'0 0.0
2017-Jun-25 00:00N 37°26' E 024°56'0 0.0
2017-Jun-24 23:30N 37°26' E 024°56'0 0.0
2017-Jun-24 23:00N 37°26' E 024°56'0 0.0
2017-Jun-24 22:30N 37°26' E 024°56'0 0.0
2017-Jun-24 22:00N 37°26' E 024°56'0 0.0
2017-Jun-24 21:30N 37°26' E 024°56'0 0.0
2017-Jun-24 21:00N 37°26' E 024°56'0 0.0
2017-Jun-24 20:30N 37°26' E 024°56'0 0.0
2017-Jun-24 20:00N 37°26' E 024°56'0 0.0
2017-Jun-24 19:30N 37°26' E 024°56'0 0.0
2017-Jun-24 19:00N 37°26' E 024°56'0 0.0
2017-Jun-24 18:30N 37°26' E 024°56'0 0.0
2017-Jun-24 18:00N 37°26' E 024°56'0 0.0
2017-Jun-24 17:30N 37°26' E 024°56'0 0.0
2017-Jun-24 17:00N 37°26' E 024°56'0 0.0
2017-Jun-24 16:30N 37°26' E 024°56'0 0.0
2017-Jun-24 16:00N 37°26' E 024°56'0 0.0
2017-Jun-24 15:30N 37°26' E 024°56'0 0.0
2017-Jun-24 15:00N 37°26' E 024°56'0 0.0
2017-Jun-24 14:00N 37°26' E 024°56'0 0.0
2017-Jun-24 13:30N 37°26' E 024°56'0 0.0
2017-Jun-24 13:00N 37°26' E 024°56'0 0.0
2017-Jun-24 12:30N 37°26' E 024°56'0 0.0
2017-Jun-24 12:00N 37°26' E 024°56'0 0.0
2017-Jun-24 11:30N 37°26' E 024°56'0 0.0
2017-Jun-24 11:00N 37°26' E 024°56'0 0.0
2017-Jun-24 10:29N 37°26' E 024°56'0 0.0
2017-Jun-24 09:58N 37°26' E 024°56'1 1.3
2017-Jun-24 09:30N 37°26' E 024°57'4 8.1
2017-Jun-24 09:00N 37°30' E 024°57'5 9.1
2017-Jun-24 08:29N 37°32' E 024°52'4 9.2
2017-Jun-24 08:00N 37°34' E 024°46'33 5.3
2017-Jun-24 01:42N 37°38' E 024°04'10 7.3
2017-Jun-24 00:24N 37°38' E 023°52'3 7.5
2017-Jun-24 00:00N 37°38' E 023°49'4 8.1
2017-Jun-23 23:30N 37°40' E 023°44'4 7.9
2017-Jun-23 23:00N 37°43' E 023°41'4 8.1
2017-Jun-23 22:30N 37°46' E 023°38'4 7.9
2017-Jun-23 22:00N 37°50' E 023°37'4 7.9
2017-Jun-23 21:30N 37°54' E 023°35'4 7.3
2017-Jun-23 21:00N 37°58' E 023°35'0 0.0
2017-Jun-23 20:30N 37°58' E 023°35'0 0.0
2017-Jun-23 20:00N 37°58' E 023°35'0 0.0
2017-Jun-23 19:30N 37°58' E 023°35'0 0.0
2017-Jun-23 19:00N 37°58' E 023°35'0 0.0
2017-Jun-23 18:30N 37°58' E 023°35'0 0.0
2017-Jun-23 18:00N 37°58' E 023°35'0 0.0
2017-Jun-23 17:30N 37°58' E 023°35'0 0.0
2017-Jun-23 17:00N 37°58' E 023°35'0 0.0
2017-Jun-23 16:30N 37°58' E 023°35'0 0.0
2017-Jun-23 16:00N 37°58' E 023°35'0 0.0
2017-Jun-23 15:30N 37°58' E 023°35'0 0.0
2017-Jun-23 15:00N 37°58' E 023°35'0 0.0
2017-Jun-23 14:00N 37°58' E 023°35'0 0.0
2017-Jun-23 13:30N 37°58' E 023°35'0 0.0
2017-Jun-23 13:00N 37°58' E 023°35'0 0.0
2017-Jun-23 12:30N 37°58' E 023°35'0 0.0
2017-Jun-23 12:00N 37°58' E 023°35'0 0.0
2017-Jun-23 11:30N 37°58' E 023°35'0 0.0
2017-Jun-23 11:00N 37°58' E 023°35'0 0.0
2017-Jun-23 10:30N 37°58' E 023°35'0 0.0
2017-Jun-23 10:00N 37°58' E 023°35'0 0.0
2017-Jun-23 09:30N 37°58' E 023°35'0 0.0
2017-Jun-23 09:00N 37°58' E 023°35'0 0.0
2017-Jun-23 08:30N 37°58' E 023°35'0 0.0
2017-Jun-23 08:00N 37°58' E 023°35'0 0.0
2017-Jun-23 07:30N 37°58' E 023°35'0 0.0
2017-Jun-23 07:00N 37°58' E 023°35'0 0.0
2017-Jun-23 06:30N 37°58' E 023°35'0 0.0
2017-Jun-23 06:00N 37°58' E 023°35'0 0.0
2017-Jun-23 05:30N 37°58' E 023°35'1 2.1
2017-Jun-23 05:00N 37°56' E 023°35'2 4.5
2017-Jun-23 04:30N 37°54' E 023°35'2 4.6
2017-Jun-23 04:00N 37°53' E 023°37'4 7.7
2017-Jun-23 03:30N 37°49' E 023°40'4 8.4
2017-Jun-23 03:00N 37°45' E 023°42'4 8.6
2017-Jun-23 02:30N 37°42' E 023°45'4 7.9
2017-Jun-23 02:00N 37°40' E 023°49'4 7.9
2017-Jun-23 01:30N 37°38' E 023°54'3 6.9
2017-Jun-23 01:00N 37°37' E 023°57'37 8.4
2017-Jun-22 20:36N 37°31' E 024°44'1 8.7
2017-Jun-22 20:30N 37°31' E 024°45'4 8.7
2017-Jun-22 20:00N 37°32' E 024°50'4 9.0
2017-Jun-22 19:30N 37°32' E 024°56'5 9.6
2017-Jun-22 19:00N 37°31' E 025°02'5 9.2
2017-Jun-22 18:30N 37°31' E 025°08'4 8.7
2017-Jun-22 18:00N 37°31' E 025°13'5 9.1
2017-Jun-22 17:30N 37°32' E 025°19'4 8.9
2017-Jun-22 17:00N 37°33' E 025°24'4 8.8
2017-Jun-22 16:30N 37°35' E 025°29'4 8.7
2017-Jun-22 16:00N 37°36' E 025°35'4 8.7
2017-Jun-22 15:29N 37°37' E 025°40'4 8.7
2017-Jun-22 15:00N 37°38' E 025°45'  
2017-Jun-16 16:37N 37°35' E 024°54'2 8.8
2017-Jun-16 16:22N 37°33' E 024°55'3 8.4
2017-Jun-16 15:59N 37°30' E 024°57'4 8.3
2017-Jun-16 15:30N 37°27' E 024°58'1 0.8
2017-Jun-16 13:59N 37°26' E 024°56'0 0.0
2017-Jun-16 13:23N 37°26' E 024°56'0 0.0
2017-Jun-16 12:59N 37°26' E 024°56'0 0.0
2017-Jun-16 12:30N 37°26' E 024°56'0 0.0
2017-Jun-16 11:51N 37°26' E 024°56'0 0.0
2017-Jun-16 11:15N 37°26' E 024°56'0 0.0
2017-Jun-16 10:55N 37°26' E 024°56'0 0.0
2017-Jun-16 10:24N 37°26' E 024°56'0 0.0
2017-Jun-16 10:00N 37°26' E 024°56'0 0.0
2017-Jun-16 09:30N 37°26' E 024°56'0 0.0
2017-Jun-16 09:00N 37°26' E 024°56'0 0.0
2017-Jun-16 08:30N 37°26' E 024°56'0 0.0
2017-Jun-16 07:58N 37°26' E 024°56'0 0.0
2017-Jun-16 07:27N 37°26' E 024°56'0 0.0
2017-Jun-16 07:00N 37°26' E 024°56'0 0.0
2017-Jun-16 06:30N 37°26' E 024°56'0 0.0
2017-Jun-16 06:00N 37°26' E 024°56'0 0.0
2017-Jun-16 05:29N 37°26' E 024°56'0 0.0
2017-Jun-16 04:57N 37°26' E 024°56'0 0.0
2017-Jun-16 04:30N 37°26' E 024°56'0 0.0
2017-Jun-16 03:56N 37°26' E 024°56'0 0.0
2017-Jun-16 03:29N 37°26' E 024°56'0 0.0
2017-Jun-16 01:36N 37°26' E 024°56'0 0.0
2017-Jun-16 01:24N 37°26' E 024°56'0 0.0
2017-Jun-16 00:46N 37°26' E 024°56'0 0.0
2017-Jun-16 00:28N 37°26' E 024°56'0 0.0
2017-Jun-15 23:57N 37°26' E 024°56'0 0.0
2017-Jun-15 23:27N 37°26' E 024°56'0 0.0
2017-Jun-15 22:55N 37°26' E 024°56'0 0.0
2017-Jun-15 22:30N 37°26' E 024°56'0 0.0
2017-Jun-15 21:47N 37°26' E 024°56'0 0.0
2017-Jun-15 21:10N 37°26' E 024°56'0 0.0
2017-Jun-15 20:58N 37°26' E 024°56'0 0.0
2017-Jun-15 20:24N 37°26' E 024°56'0 0.0
2017-Jun-15 19:56N 37°26' E 024°56'0 0.0
2017-Jun-15 19:28N 37°26' E 024°56'0 0.0
2017-Jun-15 18:59N 37°26' E 024°56'2 4.1
2017-Jun-15 18:30N 37°27' E 024°59'4 8.9
2017-Jun-15 18:00N 37°28' E 025°04'4 8.9
2017-Jun-15 17:30N 37°29' E 025°10'5 9.2
2017-Jun-15 17:00N 37°30' E 025°15'5 9.5
2017-Jun-15 16:30N 37°31' E 025°21'5 9.1
2017-Jun-15 16:00N 37°32' E 025°27'4 8.6
2017-Jun-15 15:30N 37°33' E 025°32'4 8.8
2017-Jun-15 15:00N 37°34' E 025°37'4 8.8
2017-Jun-15 14:30N 37°36' E 025°42'  
Track history (hours):
 
Tides and Currents Weather Stations Pressure Air Temp Water Temp Dewpoint Dewpoint Depression Visibility Wind Speed Wind Dir Waves Ship Positions

Agios Georgios I

Last reported at 2017-Jun-25 09:00 UTC. Time now 2017-Jun-25 09:01 UTC.
Position N 37°21' E 025°03'.

Length 59 m; draft 5 m.

Type: Ship (hazmat cat B). MMSI: 239912000.

Date/timePositionNaut miles runAvg speedWind from/ knotsBaromVisibWave heightAir tempDewpointWater temp
2017-Jun-25 09:00N 37°21' E 025°03'4 8.4
2017-Jun-25 08:30N 37°24' E 024°60'3 6.1
2017-Jun-25 08:00N 37°26' E 024°57'0 0.0
2017-Jun-25 07:29N 37°26' E 024°57'0 0.0
2017-Jun-25 06:57N 37°26' E 024°57'0 0.6
2017-Jun-25 06:30N 37°26' E 024°56'0 0.0
2017-Jun-25 06:00N 37°26' E 024°56'0 0.0
2017-Jun-25 05:30N 37°26' E 024°56'0 0.0
2017-Jun-25 05:00N 37°26' E 024°56'0 0.0
2017-Jun-25 04:29N 37°26' E 024°56'0 0.0
2017-Jun-25 04:00N 37°26' E 024°56'0 0.0
2017-Jun-25 03:30N 37°26' E 024°56'0 0.0
2017-Jun-25 03:00N 37°26' E 024°56'0 0.0
2017-Jun-25 02:30N 37°26' E 024°56'0 0.0
2017-Jun-25 02:00N 37°26' E 024°56'0 0.0
2017-Jun-25 01:30N 37°26' E 024°56'0 0.0
2017-Jun-25 01:00N 37°26' E 024°56'0 0.0
2017-Jun-25 00:30N 37°26' E 024°56'0 0.0
2017-Jun-25 00:00N 37°26' E 024°56'0 0.0
2017-Jun-24 23:30N 37°26' E 024°56'0 0.0
2017-Jun-24 23:00N 37°26' E 024°56'0 0.0
2017-Jun-24 22:30N 37°26' E 024°56'0 0.0
2017-Jun-24 22:00N 37°26' E 024°56'0 0.0
2017-Jun-24 21:30N 37°26' E 024°56'0 0.0
2017-Jun-24 21:00N 37°26' E 024°56'0 0.0
2017-Jun-24 20:30N 37°26' E 024°56'0 0.0
2017-Jun-24 20:00N 37°26' E 024°56'0 0.0
2017-Jun-24 19:30N 37°26' E 024°56'0 0.0
2017-Jun-24 19:00N 37°26' E 024°56'0 0.0
2017-Jun-24 18:30N 37°26' E 024°56'0 0.0
2017-Jun-24 18:00N 37°26' E 024°56'0 0.0
2017-Jun-24 17:30N 37°26' E 024°56'0 0.0
2017-Jun-24 17:00N 37°26' E 024°56'0 0.0
2017-Jun-24 16:30N 37°26' E 024°56'0 0.0
2017-Jun-24 16:00N 37°26' E 024°56'0 0.0
2017-Jun-24 15:30N 37°26' E 024°56'0 0.0
2017-Jun-24 15:00N 37°26' E 024°56'0 0.0
2017-Jun-24 14:00N 37°26' E 024°56'0 0.0
2017-Jun-24 13:30N 37°26' E 024°56'0 0.0
2017-Jun-24 13:00N 37°26' E 024°56'0 0.0
2017-Jun-24 12:30N 37°26' E 024°56'0 0.0
2017-Jun-24 12:00N 37°26' E 024°56'0 0.0
2017-Jun-24 11:30N 37°26' E 024°56'0 0.0
2017-Jun-24 11:00N 37°26' E 024°56'0 0.0
2017-Jun-24 10:29N 37°26' E 024°56'0 0.0
2017-Jun-24 09:58N 37°26' E 024°56'1 1.3
2017-Jun-24 09:30N 37°26' E 024°57'4 8.1
2017-Jun-24 09:00N 37°30' E 024°57'5 9.1
2017-Jun-24 08:29N 37°32' E 024°52'4 9.2
2017-Jun-24 08:00N 37°34' E 024°46'33 5.3
2017-Jun-24 01:42N 37°38' E 024°04'10 7.3
2017-Jun-24 00:24N 37°38' E 023°52'3 7.5
2017-Jun-24 00:00N 37°38' E 023°49'4 8.1
2017-Jun-23 23:30N 37°40' E 023°44'4 7.9
2017-Jun-23 23:00N 37°43' E 023°41'4 8.1
2017-Jun-23 22:30N 37°46' E 023°38'4 7.9
2017-Jun-23 22:00N 37°50' E 023°37'4 7.9
2017-Jun-23 21:30N 37°54' E 023°35'4 7.3
2017-Jun-23 21:00N 37°58' E 023°35'0 0.0
2017-Jun-23 20:30N 37°58' E 023°35'0 0.0
2017-Jun-23 20:00N 37°58' E 023°35'0 0.0
2017-Jun-23 19:30N 37°58' E 023°35'0 0.0
2017-Jun-23 19:00N 37°58' E 023°35'0 0.0
2017-Jun-23 18:30N 37°58' E 023°35'0 0.0
2017-Jun-23 18:00N 37°58' E 023°35'0 0.0
2017-Jun-23 17:30N 37°58' E 023°35'0 0.0
2017-Jun-23 17:00N 37°58' E 023°35'0 0.0
2017-Jun-23 16:30N 37°58' E 023°35'0 0.0
2017-Jun-23 16:00N 37°58' E 023°35'0 0.0
2017-Jun-23 15:30N 37°58' E 023°35'0 0.0
2017-Jun-23 15:00N 37°58' E 023°35'0 0.0
2017-Jun-23 14:00N 37°58' E 023°35'0 0.0
2017-Jun-23 13:30N 37°58' E 023°35'0 0.0
2017-Jun-23 13:00N 37°58' E 023°35'0 0.0
2017-Jun-23 12:30N 37°58' E 023°35'0 0.0
2017-Jun-23 12:00N 37°58' E 023°35'0 0.0
2017-Jun-23 11:30N 37°58' E 023°35'0 0.0
2017-Jun-23 11:00N 37°58' E 023°35'0 0.0
2017-Jun-23 10:30N 37°58' E 023°35'0 0.0
2017-Jun-23 10:00N 37°58' E 023°35'0 0.0
2017-Jun-23 09:30N 37°58' E 023°35'0 0.0
2017-Jun-23 09:00N 37°58' E 023°35'0 0.0
2017-Jun-23 08:30N 37°58' E 023°35'0 0.0
2017-Jun-23 08:00N 37°58' E 023°35'0 0.0
2017-Jun-23 07:30N 37°58' E 023°35'0 0.0
2017-Jun-23 07:00N 37°58' E 023°35'0 0.0
2017-Jun-23 06:30N 37°58' E 023°35'0 0.0
2017-Jun-23 06:00N 37°58' E 023°35'0 0.0
2017-Jun-23 05:30N 37°58' E 023°35'1 2.1
2017-Jun-23 05:00N 37°56' E 023°35'2 4.5
2017-Jun-23 04:30N 37°54' E 023°35'2 4.6
2017-Jun-23 04:00N 37°53' E 023°37'4 7.7
2017-Jun-23 03:30N 37°49' E 023°40'4 8.4
2017-Jun-23 03:00N 37°45' E 023°42'4 8.6
2017-Jun-23 02:30N 37°42' E 023°45'4 7.9
2017-Jun-23 02:00N 37°40' E 023°49'4 7.9
2017-Jun-23 01:30N 37°38' E 023°54'3 6.9
2017-Jun-23 01:00N 37°37' E 023°57'37 8.4
2017-Jun-22 20:36N 37°31' E 024°44'1 8.7
2017-Jun-22 20:30N 37°31' E 024°45'4 8.7
2017-Jun-22 20:00N 37°32' E 024°50'4 9.0
2017-Jun-22 19:30N 37°32' E 024°56'5 9.6
2017-Jun-22 19:00N 37°31' E 025°02'5 9.2
2017-Jun-22 18:30N 37°31' E 025°08'4 8.7
2017-Jun-22 18:00N 37°31' E 025°13'5 9.1
2017-Jun-22 17:30N 37°32' E 025°19'4 8.9
2017-Jun-22 17:00N 37°33' E 025°24'4 8.8
2017-Jun-22 16:30N 37°35' E 025°29'4 8.7
2017-Jun-22 16:00N 37°36' E 025°35'4 8.7
2017-Jun-22 15:29N 37°37' E 025°40'4 8.7
2017-Jun-22 15:00N 37°38' E 025°45'  
2017-Jun-16 16:37N 37°35' E 024°54'2 8.8
2017-Jun-16 16:22N 37°33' E 024°55'3 8.4
2017-Jun-16 15:59N 37°30' E 024°57'4 8.3
2017-Jun-16 15:30N 37°27' E 024°58'1 0.8
2017-Jun-16 13:59N 37°26' E 024°56'0 0.0
2017-Jun-16 13:23N 37°26' E 024°56'0 0.0
2017-Jun-16 12:59N 37°26' E 024°56'0 0.0
2017-Jun-16 12:30N 37°26' E 024°56'0 0.0
2017-Jun-16 11:51N 37°26' E 024°56'0 0.0
2017-Jun-16 11:15N 37°26' E 024°56'0 0.0
2017-Jun-16 10:55N 37°26' E 024°56'0 0.0
2017-Jun-16 10:24N 37°26' E 024°56'0 0.0
2017-Jun-16 10:00N 37°26' E 024°56'0 0.0
2017-Jun-16 09:30N 37°26' E 024°56'0 0.0
2017-Jun-16 09:00N 37°26' E 024°56'0 0.0
2017-Jun-16 08:30N 37°26' E 024°56'0 0.0
2017-Jun-16 07:58N 37°26' E 024°56'0 0.0
2017-Jun-16 07:27N 37°26' E 024°56'0 0.0
2017-Jun-16 07:00N 37°26' E 024°56'0 0.0
2017-Jun-16 06:30N 37°26' E 024°56'0 0.0
2017-Jun-16 06:00N 37°26' E 024°56'0 0.0
2017-Jun-16 05:29N 37°26' E 024°56'0 0.0
2017-Jun-16 04:57N 37°26' E 024°56'0 0.0
2017-Jun-16 04:30N 37°26' E 024°56'0 0.0
2017-Jun-16 03:56N 37°26' E 024°56'0 0.0
2017-Jun-16 03:29N 37°26' E 024°56'0 0.0
2017-Jun-16 01:36N 37°26' E 024°56'0 0.0
2017-Jun-16 01:24N 37°26' E 024°56'0 0.0
2017-Jun-16 00:46N 37°26' E 024°56'0 0.0
2017-Jun-16 00:28N 37°26' E 024°56'0 0.0
2017-Jun-15 23:57N 37°26' E 024°56'0 0.0
2017-Jun-15 23:27N 37°26' E 024°56'0 0.0
2017-Jun-15 22:55N 37°26' E 024°56'0 0.0
2017-Jun-15 22:30N 37°26' E 024°56'0 0.0
2017-Jun-15 21:47N 37°26' E 024°56'0 0.0
2017-Jun-15 21:10N 37°26' E 024°56'0 0.0
2017-Jun-15 20:58N 37°26' E 024°56'0 0.0
2017-Jun-15 20:24N 37°26' E 024°56'0 0.0
2017-Jun-15 19:56N 37°26' E 024°56'0 0.0
2017-Jun-15 19:28N 37°26' E 024°56'0 0.0
2017-Jun-15 18:59N 37°26' E 024°56'2 4.1
2017-Jun-15 18:30N 37°27' E 024°59'4 8.9
2017-Jun-15 18:00N 37°28' E 025°04'4 8.9
2017-Jun-15 17:30N 37°29' E 025°10'5 9.2
2017-Jun-15 17:00N 37°30' E 025°15'5 9.5
2017-Jun-15 16:30N 37°31' E 025°21'5 9.1
2017-Jun-15 16:00N 37°32' E 025°27'4 8.6
2017-Jun-15 15:30N 37°33' E 025°32'4 8.8
2017-Jun-15 15:00N 37°34' E 025°37'4 8.8
2017-Jun-15 14:30N 37°36' E 025°42'  

Dump ship's entire track history